createdAt,value
2018-05-23T00:02:17.754Z,101182.98
2018-05-23T00:04:45.924Z,101180.59
2018-05-23T00:07:14.078Z,101179.52
2018-05-23T00:09:42.276Z,101183.27
2018-05-23T00:12:10.441Z,101176.73
2018-05-23T00:14:38.711Z,101174.94
2018-05-23T00:17:06.860Z,101178.98
2018-05-23T00:19:35.071Z,101174.14
2018-05-23T00:22:03.233Z,101179.84
2018-05-23T00:24:31.465Z,101178.15
2018-05-23T00:26:59.635Z,101186.19
2018-05-23T00:29:27.843Z,101180.06
2018-05-23T00:31:56.596Z,101187.56
2018-05-23T00:34:24.812Z,101181.83
2018-05-23T00:36:52.990Z,101184.06
2018-05-23T00:39:24.014Z,101185.44
2018-05-23T00:41:52.161Z,101185.22
2018-05-23T00:44:20.371Z,101180.59
2018-05-23T00:46:48.539Z,101177.42
2018-05-23T00:49:16.718Z,101175.15
2018-05-23T00:51:44.879Z,101178.22
2018-05-23T00:54:13.072Z,101171.08
2018-05-23T00:56:41.237Z,101173.85
2018-05-23T00:59:10.012Z,101170.53
2018-05-23T01:01:38.185Z,101178.77
2018-05-23T01:04:06.449Z,101173.60
2018-05-23T01:06:34.642Z,101181.22
2018-05-23T01:09:02.786Z,101173.02
2018-05-23T01:11:30.999Z,101177.03
2018-05-23T01:13:59.154Z,101173.64
2018-05-23T01:16:27.360Z,101174.03
2018-05-23T01:18:55.507Z,101168.84
2018-05-23T01:21:23.722Z,101170.53
2018-05-23T01:23:51.885Z,101174.25
2018-05-23T01:26:27.023Z,101174.17
2018-05-23T01:28:55.191Z,101173.20
2018-05-23T01:31:23.401Z,101170.42
2018-05-23T01:33:51.570Z,101172.63
2018-05-23T01:36:19.779Z,101177.86
2018-05-23T01:38:47.969Z,101175.30
2018-05-23T01:41:16.153Z,101177.53
2018-05-23T01:43:44.355Z,101173.49
2018-05-23T01:46:12.540Z,101170.60
2018-05-23T01:48:52.523Z,101180.42
2018-05-23T01:51:20.674Z,101177.31
2018-05-23T01:53:48.864Z,101174.43
2018-05-23T01:56:17.035Z,101167.75
2018-05-23T01:58:45.231Z,101171.36
2018-05-23T02:01:13.441Z,101180.20
2018-05-23T02:03:41.625Z,101177.97
2018-05-23T02:06:09.782Z,101174.86
2018-05-23T02:08:37.982Z,101180.70
2018-05-23T02:11:06.193Z,101184.50
2018-05-23T02:13:34.381Z,101190.27
2018-05-23T02:16:02.547Z,101195.07
2018-05-23T02:18:30.736Z,101193.66
2018-05-23T02:20:58.909Z,101195.32
2018-05-23T02:23:27.105Z,101196.62
2018-05-23T02:25:55.319Z,101192.18
2018-05-23T02:28:23.516Z,101193.63
2018-05-23T02:30:51.687Z,101194.45
2018-05-23T02:33:19.909Z,101188.75
2018-05-23T02:35:48.062Z,101189.73
2018-05-23T02:38:16.265Z,101192.44
2018-05-23T02:40:44.442Z,101197.20
2018-05-23T02:43:12.599Z,101194.06
2018-05-23T02:45:40.787Z,101191.86
2018-05-23T02:48:08.969Z,101196.33
2018-05-23T02:50:37.186Z,101197.13
2018-05-23T02:53:05.360Z,101197.05
2018-05-23T02:55:33.580Z,101201.56
2018-05-23T02:58:01.755Z,101194.99
2018-05-23T03:00:29.963Z,101196.87
2018-05-23T03:02:59.223Z,101193.59
2018-05-23T03:05:27.840Z,101198.06
2018-05-23T03:07:56.093Z,101193.12
2018-05-23T03:10:24.285Z,101193.41
2018-05-23T03:12:52.491Z,101197.95
2018-05-23T03:15:20.658Z,101203.28
2018-05-23T03:17:48.810Z,101202.53
2018-05-23T03:20:17.008Z,101198.59
2018-05-23T03:22:45.173Z,101202.60
2018-05-23T03:25:13.326Z,101195.06
2018-05-23T03:27:41.522Z,101209.70
2018-05-23T03:30:09.674Z,101206.50
2018-05-23T03:32:37.876Z,101210.54
2018-05-23T03:35:06.045Z,101214.25
2018-05-23T03:37:34.234Z,101217.13
2018-05-23T03:40:02.408Z,101218.97
2018-05-23T03:42:30.659Z,101219.91
2018-05-23T03:44:58.858Z,101216.63
2018-05-23T03:47:27.063Z,101221.61
2018-05-23T03:49:55.242Z,101226.14
2018-05-23T03:52:23.426Z,101232.28
2018-05-23T03:54:51.722Z,101237.25
2018-05-23T03:57:19.905Z,101235.71
2018-05-23T03:59:59.932Z,101236.97
2018-05-23T04:02:40.014Z,101235.81
2018-05-23T04:05:19.910Z,101230.83
2018-05-23T04:07:48.113Z,101233.63
2018-05-23T04:10:16.275Z,101235.36
2018-05-23T04:12:44.441Z,101232.73
2018-05-23T04:15:12.632Z,101239.95
2018-05-23T04:17:40.795Z,101247.52
2018-05-23T04:20:08.986Z,101249.05
2018-05-23T04:22:37.172Z,101245.75
2018-05-23T04:25:05.355Z,101252.51
2018-05-23T04:27:33.538Z,101249.63
2018-05-23T04:30:14.364Z,101243.42
2018-05-23T04:32:43.215Z,101249.94
2018-05-23T04:35:11.392Z,101254.42
2018-05-23T04:37:39.569Z,101253.34
2018-05-23T04:40:07.773Z,101251.72
2018-05-23T04:42:35.933Z,101260.02
2018-05-23T04:45:04.125Z,101263.87
2018-05-23T04:47:32.325Z,101262.88
2018-05-23T04:50:00.507Z,101263.34
2018-05-23T04:52:31.227Z,101267.30
2018-05-23T04:54:59.405Z,101266.52
2018-05-23T04:57:27.609Z,101274.45
2018-05-23T04:59:55.801Z,101280.85
2018-05-23T05:02:24.021Z,101280.27
2018-05-23T05:04:52.221Z,101286.83
2018-05-23T05:07:20.375Z,101291.17
2018-05-23T05:09:48.579Z,101295.76
2018-05-23T05:12:16.800Z,101302.44
2018-05-23T05:14:57.521Z,101309.38
2018-05-23T05:17:28.764Z,101310.84
2018-05-23T05:20:00.899Z,101321.02
2018-05-23T05:22:29.060Z,101314.92
2018-05-23T05:24:57.347Z,101319.59
2018-05-23T05:27:25.497Z,101328.39
2018-05-23T05:29:53.677Z,101326.16
2018-05-23T05:32:21.884Z,101333.34
2018-05-23T05:34:50.034Z,101332.56
2018-05-23T05:37:19.410Z,101338.08
2018-05-23T05:39:47.655Z,101339.42
2018-05-23T05:42:15.853Z,101340.22
2018-05-23T05:44:44.021Z,101337.91
2018-05-23T05:47:14.683Z,101348.16
2018-05-23T05:49:48.460Z,101344.80
2018-05-23T05:52:22.477Z,101350.30
2018-05-23T05:54:55.890Z,101353.69
2018-05-23T05:57:49.297Z,101362.72
2018-05-23T06:00:18.501Z,101360.05
2018-05-23T06:02:46.741Z,101366.41
2018-05-23T06:05:14.931Z,101371.53
2018-05-23T06:07:43.097Z,101383.03
2018-05-23T06:10:11.312Z,101384.36
2018-05-23T06:12:39.479Z,101392.92
2018-05-23T06:15:07.649Z,101393.47
2018-05-23T06:17:35.864Z,101393.64
2018-05-23T06:20:04.066Z,101394.12
2018-05-23T06:22:32.232Z,101397.01
2018-05-23T06:25:00.442Z,101391.73
2018-05-23T06:27:28.659Z,101396.16
2018-05-23T06:30:02.793Z,101398.41
2018-05-23T06:32:39.345Z,101398.73
2018-05-23T06:35:12.334Z,101400.67
2018-05-23T06:37:43.572Z,101404.95
2018-05-23T06:40:22.032Z,101403.20
2018-05-23T06:43:07.017Z,101411.23
2018-05-23T06:45:39.769Z,101412.08
2018-05-23T06:48:21.406Z,101411.73
2018-05-23T06:50:58.389Z,101415.25
2018-05-23T06:53:40.278Z,101410.52
2018-05-23T06:56:16.456Z,101415.78
2018-05-23T06:58:52.953Z,101418.25
2018-05-23T07:01:30.514Z,101423.98
2018-05-23T07:04:01.830Z,101428.00
2018-05-23T07:06:30.466Z,101426.89
2018-05-23T07:09:00.006Z,101429.89
2018-05-23T07:11:30.658Z,101427.33
2018-05-23T07:14:04.035Z,101424.30
2018-05-23T07:16:32.927Z,101432.70
2018-05-23T07:19:10.026Z,101427.98
2018-05-23T07:21:44.776Z,101434.61
2018-05-23T07:24:15.943Z,101434.97
2018-05-23T07:26:55.501Z,101442.92
2018-05-23T07:29:37.431Z,101444.48
2018-05-23T07:32:15.217Z,101449.56
2018-05-23T07:34:56.350Z,101440.19
2018-05-23T07:37:33.188Z,101446.05
2018-05-23T07:40:08.657Z,101446.66
2018-05-23T07:42:43.487Z,101442.20
2018-05-23T07:45:17.733Z,101448.60
2018-05-23T07:47:53.521Z,101443.63
2018-05-23T07:50:21.712Z,101442.52
2018-05-23T07:53:02.004Z,101437.55
2018-05-23T07:55:41.628Z,101441.36
2018-05-23T07:58:15.874Z,101429.94
2018-05-23T08:01:01.240Z,101432.95
2018-05-23T08:03:37.863Z,101440.80
2018-05-23T08:06:09.595Z,101448.73
2018-05-23T08:08:41.182Z,101446.83
2018-05-23T08:11:17.309Z,101445.41
2018-05-23T08:13:48.294Z,101447.36
2018-05-23T08:16:33.228Z,101456.38
2018-05-23T08:19:09.187Z,101457.49
2018-05-23T08:21:43.549Z,101455.16
2018-05-23T08:24:20.859Z,101457.52
2018-05-23T08:27:04.679Z,101461.18
2018-05-23T08:29:37.626Z,101460.41
2018-05-23T08:32:21.883Z,101461.12
2018-05-23T08:35:00.814Z,101459.69
2018-05-23T08:37:34.850Z,101469.47
2018-05-23T08:40:09.165Z,101472.95
2018-05-23T08:42:41.392Z,101466.05
2018-05-23T08:45:21.808Z,101469.95
2018-05-23T08:48:01.131Z,101472.38
2018-05-23T08:50:41.022Z,101475.73
2018-05-23T08:53:27.376Z,101474.64
2018-05-23T08:56:11.384Z,101478.09
2018-05-23T08:58:47.058Z,101475.28
2018-05-23T09:01:30.906Z,101480.60
2018-05-23T09:04:10.529Z,101478.73
2018-05-23T09:06:40.828Z,101480.48
2018-05-23T09:09:14.578Z,101485.22
2018-05-23T09:11:53.870Z,101482.48
2018-05-23T09:14:26.707Z,101477.95
2018-05-23T09:17:03.371Z,101483.67
2018-05-23T09:19:35.436Z,101488.80
2018-05-23T09:22:11.248Z,101490.28
2018-05-23T09:24:44.766Z,101489.70
2018-05-23T09:27:22.576Z,101490.97
2018-05-23T09:29:57.522Z,101489.69
2018-05-23T09:32:38.537Z,101490.29
2018-05-23T09:35:11.077Z,101494.20
2018-05-23T09:37:42.132Z,101493.14
2018-05-23T09:40:17.673Z,101500.55
2018-05-23T09:42:59.854Z,101496.09
2018-05-23T09:45:38.532Z,101504.13
2018-05-23T09:48:10.408Z,101502.31
2018-05-23T09:50:44.760Z,101509.34
2018-05-23T09:53:24.951Z,101509.48
2018-05-23T09:56:01.656Z,101506.19
2018-05-23T09:58:44.064Z,101507.89
2018-05-23T10:01:18.790Z,101509.20
2018-05-23T10:03:57.010Z,101506.12
2018-05-23T10:06:33.984Z,101517.53
2018-05-23T10:09:20.338Z,101516.47
2018-05-23T10:11:56.867Z,101509.62
2018-05-23T10:14:37.483Z,101520.73
2018-05-23T10:17:20.115Z,101522.69
2018-05-23T10:19:57.308Z,101526.84
2018-05-23T10:22:33.715Z,101522.39
2018-05-23T10:25:14.049Z,101525.64
2018-05-23T10:27:47.364Z,101524.70
2018-05-23T10:30:21.666Z,101527.41
2018-05-23T10:32:51.417Z,101528.84
2018-05-23T10:35:19.587Z,101533.38
2018-05-23T10:37:47.741Z,101535.43
2018-05-23T10:40:15.939Z,101545.09
2018-05-23T10:42:44.114Z,101546.19
2018-05-23T10:45:12.287Z,101545.22
2018-05-23T10:47:40.462Z,101540.95
2018-05-23T10:50:08.638Z,101547.59
2018-05-23T10:52:36.828Z,101553.61
2018-05-23T10:55:05.056Z,101555.69
2018-05-23T10:57:33.213Z,101556.77
2018-05-23T11:00:01.431Z,101557.40
2018-05-23T11:02:29.595Z,101560.34
2018-05-23T11:04:57.758Z,101570.66
2018-05-23T11:07:25.924Z,101568.28
2018-05-23T11:09:54.122Z,101572.30
2018-05-23T11:12:22.277Z,101577.04
2018-05-23T11:14:50.577Z,101578.12
2018-05-23T11:17:18.722Z,101583.96
2018-05-23T11:19:46.931Z,101579.64
2018-05-23T11:22:15.122Z,101586.61
2018-05-23T11:24:43.267Z,101579.89
2018-05-23T11:27:11.429Z,101586.70
2018-05-23T11:29:39.651Z,101584.34
2018-05-23T11:32:07.770Z,101586.30
2018-05-23T11:34:35.945Z,101589.57
2018-05-23T11:37:04.130Z,101593.13
2018-05-23T11:39:33.634Z,101587.88
2018-05-23T11:42:01.811Z,101587.75
2018-05-23T11:44:30.086Z,101594.77
2018-05-23T11:46:58.248Z,101595.93
2018-05-23T11:49:26.437Z,101591.69
2018-05-23T11:51:54.581Z,101593.31
2018-05-23T11:54:22.764Z,101592.11
2018-05-23T11:56:50.918Z,101586.95
2018-05-23T11:59:19.104Z,101586.03
2018-05-23T12:01:47.341Z,101584.34
2018-05-23T12:04:15.484Z,101577.84
2018-05-23T12:06:43.651Z,101583.97
2018-05-23T12:09:11.918Z,101589.98
2018-05-23T12:11:40.093Z,101587.16
2018-05-23T12:14:08.337Z,101595.84
2018-05-23T12:16:36.491Z,101594.72
2018-05-23T12:19:04.657Z,101587.38
2018-05-23T12:21:32.857Z,101592.47
2018-05-23T12:24:01.921Z,101593.50
2018-05-23T12:26:30.095Z,101593.70
2018-05-23T12:28:58.278Z,101589.06
2018-05-23T12:31:26.451Z,101594.55
2018-05-23T12:33:54.619Z,101592.63
2018-05-23T12:36:22.809Z,101586.35
2018-05-23T12:38:50.989Z,101587.30
2018-05-23T12:41:19.141Z,101590.95
2018-05-23T12:43:47.327Z,101593.09
2018-05-23T12:46:15.534Z,101587.62
2018-05-23T12:48:43.671Z,101590.20
2018-05-23T12:51:11.834Z,101586.88
2018-05-23T12:53:40.020Z,101587.51
2018-05-23T12:56:08.195Z,101589.13
2018-05-23T12:58:36.372Z,101586.98
2018-05-23T13:01:04.521Z,101579.78
2018-05-23T13:03:32.684Z,101584.23
2018-05-23T13:06:00.850Z,101570.98
2018-05-23T13:08:29.009Z,101571.20
2018-05-23T13:10:57.219Z,101570.52
2018-05-23T13:13:25.379Z,101562.61
2018-05-23T13:15:53.654Z,101565.11
2018-05-23T13:18:21.800Z,101559.20
2018-05-23T13:20:49.983Z,101554.27
2018-05-23T13:23:18.178Z,101549.28
2018-05-23T13:25:46.359Z,101540.84
2018-05-23T13:28:14.508Z,101541.86
2018-05-23T13:30:42.684Z,101534.38
2018-05-23T13:33:10.838Z,101530.27
2018-05-23T13:35:39.051Z,101529.30
2018-05-23T13:38:07.207Z,101531.43
2018-05-23T13:40:35.410Z,101522.38
2018-05-23T13:43:03.564Z,101515.30
2018-05-23T13:45:31.745Z,101516.84
2018-05-23T13:48:00.730Z,101507.22
2018-05-23T13:50:28.899Z,101503.12
2018-05-23T13:52:57.059Z,101496.56
2018-05-23T13:55:26.176Z,101498.75
2018-05-23T13:57:54.362Z,101495.94
2018-05-23T14:00:22.532Z,101493.33
2018-05-23T14:02:50.682Z,101483.63
2018-05-23T14:05:18.833Z,101485.76
2018-05-23T14:07:47.044Z,101484.76
2018-05-23T14:10:15.201Z,101483.88
2018-05-23T14:12:43.418Z,101483.30
2018-05-23T14:15:11.592Z,101478.04
2018-05-23T14:17:39.755Z,101477.93
2018-05-23T14:20:07.988Z,101471.42
2018-05-23T14:22:36.143Z,101475.52
2018-05-23T14:25:04.426Z,101470.97
2018-05-23T14:27:32.591Z,101476.95
2018-05-23T14:30:00.765Z,101475.38
2018-05-23T14:32:28.929Z,101474.75
2018-05-23T14:34:57.084Z,101478.27
2018-05-23T14:37:25.300Z,101470.52
2018-05-23T14:39:54.381Z,101469.83
2018-05-23T14:42:22.557Z,101470.27
2018-05-23T14:44:50.712Z,101472.81
2018-05-23T14:47:18.907Z,101465.00
2018-05-23T14:49:47.090Z,101468.37
2018-05-23T14:52:15.263Z,101471.98
2018-05-23T14:54:43.464Z,101472.73
2018-05-23T14:57:11.637Z,101477.15
2018-05-23T14:59:39.891Z,101475.23
2018-05-23T15:02:08.092Z,101480.14
2018-05-23T15:04:36.283Z,101470.87
2018-05-23T15:07:04.438Z,101469.17
2018-05-23T15:09:32.621Z,101471.78
2018-05-23T15:12:00.787Z,101467.98
2018-05-23T15:14:29.082Z,101467.72
2018-05-23T15:16:57.223Z,101465.01
2018-05-23T15:19:25.461Z,101465.56
2018-05-23T15:21:53.639Z,101468.08
2018-05-23T15:24:21.818Z,101460.27
2018-05-23T15:26:49.986Z,101467.72
2018-05-23T15:29:18.175Z,101458.11
2018-05-23T15:31:46.356Z,101465.61
2018-05-23T15:34:14.507Z,101466.33
2018-05-23T15:36:42.698Z,101467.01
2018-05-23T15:39:10.853Z,101459.48
2018-05-23T15:41:39.127Z,101464.13
2018-05-23T15:44:07.259Z,101456.52
2018-05-23T15:46:35.468Z,101466.06
2018-05-23T15:49:03.667Z,101457.80
2018-05-23T15:51:31.865Z,101452.33
2018-05-23T15:54:00.020Z,101456.74
2018-05-23T15:56:28.948Z,101461.16
2018-05-23T15:58:57.091Z,101466.05
2018-05-23T16:01:25.264Z,101462.74
2018-05-23T16:03:53.455Z,101462.77
2018-05-23T16:06:21.622Z,101463.81
2018-05-23T16:08:49.758Z,101467.92
2018-05-23T16:11:17.940Z,101456.83
2018-05-23T16:13:46.133Z,101466.95
2018-05-23T16:16:15.369Z,101461.47
2018-05-23T16:18:43.529Z,101462.91
2018-05-23T16:21:11.712Z,101464.09
2018-05-23T16:23:39.891Z,101465.40
2018-05-23T16:26:08.045Z,101464.55
2018-05-23T16:28:36.248Z,101462.78
2018-05-23T16:31:04.390Z,101462.16
2018-05-23T16:33:32.576Z,101457.84
2018-05-23T16:36:00.805Z,101459.27
2018-05-23T16:38:28.982Z,101459.66
2018-05-23T16:40:57.164Z,101464.78
2018-05-23T16:43:25.332Z,101458.81
2018-05-23T16:45:53.529Z,101460.26
2018-05-23T16:48:21.733Z,101459.06
2018-05-23T16:50:49.893Z,101455.84
2018-05-23T16:53:18.080Z,101456.80
2018-05-23T16:55:46.238Z,101456.66
2018-05-23T16:58:14.394Z,101457.20
2018-05-23T17:00:42.563Z,101455.42
2018-05-23T17:03:10.745Z,101455.63
2018-05-23T17:05:38.889Z,101453.36
2018-05-23T17:08:07.072Z,101456.97
2018-05-23T17:10:35.323Z,101464.08
2018-05-23T17:13:03.667Z,101470.03
2018-05-23T17:15:31.872Z,101472.80
2018-05-23T17:18:00.034Z,101477.28
2018-05-23T17:20:28.183Z,101477.56
2018-05-23T17:22:56.391Z,101482.52
2018-05-23T17:25:24.562Z,101482.02
2018-05-23T17:27:52.715Z,101473.84
2018-05-23T17:30:20.900Z,101477.26
2018-05-23T17:32:49.112Z,101478.32
2018-05-23T17:35:17.341Z,101475.71
2018-05-23T17:37:45.486Z,101478.41
2018-05-23T17:40:13.799Z,101476.02
2018-05-23T17:42:41.945Z,101473.08
2018-05-23T17:45:10.105Z,101470.09
2018-05-23T17:47:38.329Z,101475.59
2018-05-23T17:50:06.517Z,101477.58
2018-05-23T17:52:34.699Z,101471.53
2018-05-23T17:55:02.875Z,101466.09
2018-05-23T17:57:31.033Z,101465.38
2018-05-23T17:59:59.204Z,101477.95
2018-05-23T18:02:27.361Z,101468.79
2018-05-23T18:04:55.537Z,101468.36
2018-05-23T18:07:23.734Z,101472.26
2018-05-23T18:09:51.906Z,101468.73
2018-05-23T18:12:20.066Z,101473.34
2018-05-23T18:14:48.211Z,101471.98
2018-05-23T18:17:16.416Z,101475.03
2018-05-23T18:19:44.590Z,101476.03
2018-05-23T18:22:12.769Z,101474.82
2018-05-23T18:24:40.940Z,101475.53
2018-05-23T18:27:09.175Z,101476.84
2018-05-23T18:29:37.366Z,101481.61
2018-05-23T18:32:05.560Z,101481.86
2018-05-23T18:34:33.789Z,101478.45
2018-05-23T18:37:01.990Z,101484.17
2018-05-23T18:39:30.155Z,101489.52
2018-05-23T18:41:58.303Z,101480.83
2018-05-23T18:44:26.483Z,101482.09
2018-05-23T18:46:54.631Z,101480.74
2018-05-23T18:49:22.819Z,101478.08
2018-05-23T18:51:51.022Z,101478.83
2018-05-23T18:54:19.283Z,101480.56
2018-05-23T18:56:47.418Z,101482.30
2018-05-23T18:59:15.618Z,101481.86
2018-05-23T19:01:43.795Z,101480.20
2018-05-23T19:04:11.981Z,101484.11
2018-05-23T19:06:40.123Z,101491.27
2018-05-23T19:09:08.309Z,101485.81
2018-05-23T19:11:36.483Z,101491.03
2018-05-23T19:14:04.685Z,101498.75
2018-05-23T19:16:32.871Z,101497.06
2018-05-23T19:19:01.681Z,101499.29
2018-05-23T19:21:30.156Z,101499.09
2018-05-23T19:23:59.918Z,101502.05
2018-05-23T19:26:31.520Z,101506.12
2018-05-23T19:28:59.917Z,101511.41
2018-05-23T19:31:28.404Z,101503.84
2018-05-23T19:33:56.917Z,101510.39
2018-05-23T19:36:25.427Z,101520.34
2018-05-23T19:38:54.555Z,101523.12
2018-05-23T19:41:23.130Z,101531.16
2018-05-23T19:43:51.514Z,101535.76
2018-05-23T19:46:20.087Z,101533.58
2018-05-23T19:48:48.542Z,101535.70
2018-05-23T19:51:17.025Z,101538.13
2018-05-23T19:53:45.283Z,101544.20
2018-05-23T19:56:13.478Z,101551.18
2018-05-23T19:58:41.685Z,101544.64
2018-05-23T20:01:09.887Z,101543.45
2018-05-23T20:03:38.091Z,101547.61
2018-05-23T20:06:06.273Z,101551.89
2018-05-23T20:08:34.452Z,101554.14
2018-05-23T20:11:02.633Z,101558.73
2018-05-23T20:13:30.812Z,101560.09
2018-05-23T20:15:59.001Z,101554.74
2018-05-23T20:18:27.199Z,101556.78
2018-05-23T20:20:55.452Z,101557.33
2018-05-23T20:23:23.623Z,101557.59
2018-05-23T20:25:51.810Z,101554.17
2018-05-23T20:28:20.012Z,101554.84
2018-05-23T20:30:48.152Z,101561.58
2018-05-23T20:33:16.343Z,101556.48
2018-05-23T20:35:44.485Z,101554.98
2018-05-23T20:38:13.223Z,101551.19
2018-05-23T20:40:41.413Z,101559.06
2018-05-23T20:43:09.579Z,101555.69
2018-05-23T20:45:37.733Z,101561.43
2018-05-23T20:48:05.932Z,101561.12
2018-05-23T20:50:34.098Z,101556.50
2018-05-23T20:53:02.273Z,101555.53
2018-05-23T20:55:30.445Z,101556.75
2018-05-23T20:57:58.604Z,101559.59
2018-05-23T21:00:26.807Z,101557.90
2018-05-23T21:02:54.968Z,101562.95
2018-05-23T21:05:23.186Z,101558.86
2018-05-23T21:07:51.366Z,101560.48
2018-05-23T21:10:19.525Z,101564.56
2018-05-23T21:12:47.714Z,101557.73
2018-05-23T21:15:15.860Z,101560.13
2018-05-23T21:17:44.052Z,101564.49
2018-05-23T21:20:12.223Z,101566.00
2018-05-23T21:22:40.390Z,101572.39
2018-05-23T21:25:08.581Z,101580.69
2018-05-23T21:27:36.738Z,101578.98
2018-05-23T21:30:04.910Z,101578.36
2018-05-23T21:32:33.087Z,101582.63
2018-05-23T21:35:01.246Z,101580.70
2018-05-23T21:37:29.451Z,101582.63
2018-05-23T21:39:57.614Z,101589.56
2018-05-23T21:42:25.810Z,101588.54
2018-05-23T21:44:54.006Z,101592.25
2018-05-23T21:47:22.165Z,101586.77
2018-05-23T21:49:50.335Z,101588.27
2018-05-23T21:52:18.549Z,101584.84
2018-05-23T21:54:46.724Z,101585.39
2018-05-23T21:57:14.875Z,101583.45
2018-05-23T21:59:43.628Z,101583.89
2018-05-23T22:02:11.788Z,101578.83
2018-05-23T22:04:39.988Z,101581.75
2018-05-23T22:07:08.148Z,101578.00
2018-05-23T22:09:36.315Z,101579.34
2018-05-23T22:12:04.528Z,101587.98
2018-05-23T22:14:32.688Z,101578.59
2018-05-23T22:17:00.838Z,101580.02
2018-05-23T22:19:29.013Z,101576.30
2018-05-23T22:21:57.169Z,101576.39
2018-05-23T22:24:25.366Z,101573.90
2018-05-23T22:26:53.545Z,101569.32
2018-05-23T22:29:21.705Z,101570.11
2018-05-23T22:31:49.895Z,101561.16
2018-05-23T22:34:18.032Z,101568.66
2018-05-23T22:36:46.209Z,101570.42
2018-05-23T22:39:14.398Z,101562.53
2018-05-23T22:41:54.964Z,101567.55
2018-05-23T22:44:28.117Z,101563.64
2018-05-23T22:46:56.290Z,101564.83
2018-05-23T22:49:24.502Z,101567.39
2018-05-23T22:51:52.666Z,101561.95
2018-05-23T22:54:20.838Z,101564.44
2018-05-23T22:56:49.007Z,101567.83
2018-05-23T22:59:17.196Z,101571.84
2018-05-23T23:01:45.358Z,101566.64
2018-05-23T23:04:13.540Z,101564.62
2018-05-23T23:06:43.078Z,101565.01
2018-05-23T23:09:12.116Z,101566.22
2018-05-23T23:11:40.617Z,101568.18
2018-05-23T23:14:08.802Z,101564.50
2018-05-23T23:16:37.001Z,101568.64
2018-05-23T23:19:05.157Z,101568.87
2018-05-23T23:21:33.369Z,101569.54
2018-05-23T23:24:02.369Z,101568.31
2018-05-23T23:26:30.555Z,101566.34
2018-05-23T23:28:58.732Z,101580.38
2018-05-23T23:31:26.906Z,101578.80
2018-05-23T23:33:55.887Z,101583.20
2018-05-23T23:36:24.065Z,101577.19
2018-05-23T23:38:52.275Z,101573.52
2018-05-23T23:41:20.457Z,101572.40
2018-05-23T23:43:48.669Z,101576.06
2018-05-23T23:46:16.846Z,101571.83
2018-05-23T23:48:45.072Z,101569.42
2018-05-23T23:51:13.265Z,101570.55
2018-05-23T23:53:41.456Z,101561.92
2018-05-23T23:56:09.623Z,101563.73
2018-05-23T23:58:37.798Z,101568.40
